Aviation Digital Data Service (ADDS)

Output produced by METARs form (1550 UTC 20 March 2019)
found at http://www.aviationweather.gov/metar/data/
 
METAR text: KSMF 201453Z 15012KT 9SM -RA SCT046 BKN060 OVC075 11/09 A2994 RMK AO2 SLP139 P0004 60004 T01060094 51017
Conditions at: KSMF (SACRAMENTO/METRO, CA, US) observed 1453 UTC 20 March 2019
Temperature: 10.6°C (51°F)
Dewpoint: 9.4°C (49°F) [RH = 92%]
Pressure (altimeter): 29.94 inches Hg (1014.0 mb)
[Sea-level pressure: 1013.9 mb]
Winds: from the SSE (150 degrees) at 14 MPH (12 knots; 6.2 m/s)
Visibility: 9 miles (14 km)
Ceiling: 6000 feet AGL
Clouds: scattered clouds at 4600 feet AGL
broken clouds at 6000 feet AGL
overcast cloud deck at 7500 feet AGL
Weather: -RA  (light rain)

METAR text: KSMF 201353Z 18008KT 9SM -RA BKN036 OVC043 11/09 A2993 RMK AO2 RAB30 SLP135 P0000 T01110089
Conditions at: KSMF (SACRAMENTO/METRO, CA, US) observed 1353 UTC 20 March 2019
Temperature: 11.1°C (52°F)
Dewpoint: 8.9°C (48°F) [RH = 86%]
Pressure (altimeter): 29.93 inches Hg (1013.6 mb)
[Sea-level pressure: 1013.5 mb]
Winds: from the S (180 degrees) at 9 MPH (8 knots; 4.1 m/s)
Visibility: 9 miles (14 km)
Ceiling: 3600 feet AGL
Clouds: broken clouds at 3600 feet AGL
overcast cloud deck at 4300 feet AGL
Weather: -RA  (light rain)

METAR text: KSMF 201253Z 14006KT 10SM SCT035 OVC050 11/09 A2991 RMK AO2 SLP127 T01110089
Conditions at: KSMF (SACRAMENTO/METRO, CA, US) observed 1253 UTC 20 March 2019
Temperature: 11.1°C (52°F)
Dewpoint: 8.9°C (48°F) [RH = 86%]
Pressure (altimeter): 29.91 inches Hg (1013.0 mb)
[Sea-level pressure: 1012.7 mb]
Winds: from the SE (140 degrees) at 7 MPH (6 knots; 3.1 m/s)
Visibility: 10 or more miles (16+ km)
Ceiling: 5000 feet AGL
Clouds: scattered clouds at 3500 feet AGL
overcast cloud deck at 5000 feet AGL
Weather: no significant weather observed at this time

METAR text: KSMF 201153Z 10004KT 10SM OVC050 11/09 A2989 RMK AO2 SLP122 60023 70023 T01110094 10150 20106 57007
Conditions at: KSMF (SACRAMENTO/METRO, CA, US) observed 1153 UTC 20 March 2019
Temperature: 11.1°C (52°F)
Dewpoint: 9.4°C (49°F) [RH = 89%]
Pressure (altimeter): 29.89 inches Hg (1012.3 mb)
[Sea-level pressure: 1012.2 mb]
Winds: from the E (100 degrees) at 5 MPH (4 knots; 2.1 m/s)
Visibility: 10 or more miles (16+ km)
Ceiling: 5000 feet AGL
Clouds: overcast cloud deck at 5000 feet AGL
Weather: no significant weather observed at this time

METAR text: KSMF 201053Z 10008KT 10SM BKN050 OVC060 11/09 A2990 RMK AO2 RAE11 SLP124 P0000 T01110094
Conditions at: KSMF (SACRAMENTO/METRO, CA, US) observed 1053 UTC 20 March 2019
Temperature: 11.1°C (52°F)
Dewpoint: 9.4°C (49°F) [RH = 89%]
Pressure (altimeter): 29.90 inches Hg (1012.6 mb)
[Sea-level pressure: 1012.4 mb]
Winds: from the E (100 degrees) at 9 MPH (8 knots; 4.1 m/s)
Visibility: 10 or more miles (16+ km)
Ceiling: 5000 feet AGL
Clouds: broken clouds at 5000 feet AGL
overcast cloud deck at 6000 feet AGL
Weather: no significant weather observed at this time

METAR text: KSMF 200953Z 11008KT 10SM -RA FEW035 OVC065 11/10 A2991 RMK AO2 SLP127 P0003 T01110100
Conditions at: KSMF (SACRAMENTO/METRO, CA, US) observed 0953 UTC 20 March 2019
Temperature: 11.1°C (52°F)
Dewpoint: 10.0°C (50°F) [RH = 93%]
Pressure (altimeter): 29.91 inches Hg (1013.0 mb)
[Sea-level pressure: 1012.7 mb]
Winds: from the ESE (110 degrees) at 9 MPH (8 knots; 4.1 m/s)
Visibility: 10 or more miles (16+ km)
Ceiling: 6500 feet AGL
Clouds: few clouds at 3500 feet AGL
overcast cloud deck at 6500 feet AGL
Weather: -RA  (light rain)

METAR text: KSMF 200853Z 16006KT 7SM -RA FEW035 OVC055 12/11 A2991 RMK AO2 SLP129 P0014 60020 T01170106 53039
Conditions at: KSMF (SACRAMENTO/METRO, CA, US) observed 0853 UTC 20 March 2019
Temperature: 11.7°C (53°F)
Dewpoint: 10.6°C (51°F) [RH = 93%]
Pressure (altimeter): 29.91 inches Hg (1013.0 mb)
[Sea-level pressure: 1012.9 mb]
Winds: from the SSE (160 degrees) at 7 MPH (6 knots; 3.1 m/s)
Visibility: 7 miles (11 km)
Ceiling: 5500 feet AGL
Clouds: few clouds at 3500 feet AGL
overcast cloud deck at 5500 feet AGL
Weather: -RA  (light rain)

METAR text: KSMF 200753Z 19012G16KT 8SM -RA BKN050 OVC070 13/09 A2990 RMK AO2 RAB04 SLP123 P0006 T01280094 402170083
Conditions at: KSMF (SACRAMENTO/METRO, CA, US) observed 0753 UTC 20 March 2019
Temperature: 12.8°C (55°F)
Dewpoint: 9.4°C (49°F) [RH = 80%]
Pressure (altimeter): 29.90 inches Hg (1012.6 mb)
[Sea-level pressure: 1012.3 mb]
Winds: from the S (190 degrees) at 14 MPH (12 knots; 6.2 m/s)
gusting to 18 MPH (16 knots; 8.2 m/s)
Visibility: 8 miles (13 km)
Ceiling: 5000 feet AGL
Clouds: broken clouds at 5000 feet AGL
overcast cloud deck at 7000 feet AGL
Weather: -RA  (light rain)

METAR text: KSMF 200653Z 23012KT 10SM BKN090 BKN110 14/04 A2981 RMK AO2 SLP095 T01440039
Conditions at: KSMF (SACRAMENTO/METRO, CA, US) observed 0653 UTC 20 March 2019
Temperature: 14.4°C (58°F)
Dewpoint: 3.9°C (39°F) [RH = 49%]
Pressure (altimeter): 29.81 inches Hg (1009.6 mb)
[Sea-level pressure: 1009.5 mb]
Winds: from the SW (230 degrees) at 14 MPH (12 knots; 6.2 m/s)
Visibility: 10 or more miles (16+ km)
Ceiling: 9000 feet AGL
Clouds: broken clouds at 9000 feet AGL
broken clouds at 11000 feet AGL
Weather: no significant weather observed at this time

METAR text: KSMF 200553Z 23008KT 10SM FEW090 BKN110 14/05 A2980 RMK AO2 SLP091 T01440050 10200 20144 53012
Conditions at: KSMF (SACRAMENTO/METRO, CA, US) observed 0553 UTC 20 March 2019
Temperature: 14.4°C (58°F)
Dewpoint: 5.0°C (41°F) [RH = 53%]
Pressure (altimeter): 29.80 inches Hg (1009.2 mb)
[Sea-level pressure: 1009.1 mb]
Winds: from the SW (230 degrees) at 9 MPH (8 knots; 4.1 m/s)
Visibility: 10 or more miles (16+ km)
Ceiling: 11000 feet AGL
Clouds: few clouds at 9000 feet AGL
broken clouds at 11000 feet AGL
Weather: no significant weather observed at this time

METAR text: KSMF 200453Z 24012KT 10SM SCT110 16/09 A2979 RMK AO2 SLP086 T01560089
Conditions at: KSMF (SACRAMENTO/METRO, CA, US) observed 0453 UTC 20 March 2019
Temperature: 15.6°C (60°F)
Dewpoint: 8.9°C (48°F) [RH = 64%]
Pressure (altimeter): 29.79 inches Hg (1008.9 mb)
[Sea-level pressure: 1008.6 mb]
Winds: from the WSW (240 degrees) at 14 MPH (12 knots; 6.2 m/s)
Visibility: 10 or more miles (16+ km)
Ceiling: at least 12,000 feet AGL
Clouds: scattered clouds at 11000 feet AGL
Weather: no significant weather observed at this time

METAR text: KSMF 200353Z 27003KT 10SM FEW100 BKN150 16/11 A2977 RMK AO2 SLP080 T01610111
Conditions at: KSMF (SACRAMENTO/METRO, CA, US) observed 0353 UTC 20 March 2019
Temperature: 16.1°C (61°F)
Dewpoint: 11.1°C (52°F) [RH = 72%]
Pressure (altimeter): 29.77 inches Hg (1008.2 mb)
[Sea-level pressure: 1008.0 mb]
Winds: from the W (270 degrees) at 3 MPH (3 knots; 1.5 m/s)
Visibility: 10 or more miles (16+ km)
Ceiling: 15000 feet AGL
Clouds: few clouds at 10000 feet AGL
broken clouds at 15000 feet AGL
Weather: no significant weather observed at this time

METAR text: KSMF 200253Z 27004KT 10SM SCT080 BKN150 OVC200 17/11 A2976 RMK AO2 SLP078 T01720106 55010
Conditions at: KSMF (SACRAMENTO/METRO, CA, US) observed 0253 UTC 20 March 2019
Temperature: 17.2°C (63°F)
Dewpoint: 10.6°C (51°F) [RH = 65%]
Pressure (altimeter): 29.76 inches Hg (1007.9 mb)
[Sea-level pressure: 1007.8 mb]
Winds: from the W (270 degrees) at 5 MPH (4 knots; 2.1 m/s)
Visibility: 10 or more miles (16+ km)
Ceiling: 15000 feet AGL
Clouds: scattered clouds at 8000 feet AGL
broken clouds at 15000 feet AGL
overcast cloud deck at 20000 feet AGL
Weather: no significant weather observed at this time

METAR text: KSMF 200153Z 33007KT 10SM FEW080 BKN150 OVC200 18/12 A2975 RMK AO2 SLP075 T01780117
Conditions at: KSMF (SACRAMENTO/METRO, CA, US) observed 0153 UTC 20 March 2019
Temperature: 17.8°C (64°F)
Dewpoint: 11.7°C (53°F) [RH = 67%]
Pressure (altimeter): 29.75 inches Hg (1007.5 mb)
[Sea-level pressure: 1007.5 mb]
Winds: from the NNW (330 degrees) at 8 MPH (7 knots; 3.6 m/s)
Visibility: 10 or more miles (16+ km)
Ceiling: 15000 feet AGL
Clouds: few clouds at 8000 feet AGL
broken clouds at 15000 feet AGL
overcast cloud deck at 20000 feet AGL
Weather: no significant weather observed at this time

METAR text: KSMF 200053Z 32004KT 10SM FEW080 BKN150 OVC200 19/12 A2977 RMK AO2 SLP081 T01890122
Conditions at: KSMF (SACRAMENTO/METRO, CA, US) observed 0053 UTC 20 March 2019
Temperature: 18.9°C (66°F)
Dewpoint: 12.2°C (54°F) [RH = 65%]
Pressure (altimeter): 29.77 inches Hg (1008.2 mb)
[Sea-level pressure: 1008.1 mb]
Winds: from the NW (320 degrees) at 5 MPH (4 knots; 2.1 m/s)
Visibility: 10 or more miles (16+ km)
Ceiling: 15000 feet AGL
Clouds: few clouds at 8000 feet AGL
broken clouds at 15000 feet AGL
overcast cloud deck at 20000 feet AGL
Weather: no significant weather observed at this time

METAR text: KSMF 192353Z 29004KT 10SM SCT100 OVC180 20/11 A2980 RMK AO2 SLP089 T02000106 10217 20150 56019
Conditions at: KSMF (SACRAMENTO/METRO, CA, US) observed 2353 UTC 19 March 2019
Temperature: 20.0°C (68°F)
Dewpoint: 10.6°C (51°F) [RH = 55%]
Pressure (altimeter): 29.80 inches Hg (1009.2 mb)
[Sea-level pressure: 1008.9 mb]
Winds: from the WNW (290 degrees) at 5 MPH (4 knots; 2.1 m/s)
Visibility: 10 or more miles (16+ km)
Ceiling: 18000 feet AGL
Clouds: scattered clouds at 10000 feet AGL
overcast cloud deck at 18000 feet AGL
Weather: no significant weather observed at this time

METAR text: KSMF 192253Z 00000KT 10SM SCT100 OVC180 21/09 A2981 RMK AO2 SLP093 T02110094
Conditions at: KSMF (SACRAMENTO/METRO, CA, US) observed 2253 UTC 19 March 2019
Temperature: 21.1°C (70°F)
Dewpoint: 9.4°C (49°F) [RH = 47%]
Pressure (altimeter): 29.81 inches Hg (1009.6 mb)
[Sea-level pressure: 1009.3 mb]
Winds: calm
Visibility: 10 or more miles (16+ km)
Ceiling: 18000 feet AGL
Clouds: scattered clouds at 10000 feet AGL
overcast cloud deck at 18000 feet AGL
Weather: no significant weather observed at this time

METAR text: KSMF 192153Z 00000KT 10SM SCT100 OVC180 22/08 A2982 RMK AO2 SLP099 T02170078
Conditions at: KSMF (SACRAMENTO/METRO, CA, US) observed 2153 UTC 19 March 2019
Temperature: 21.7°C (71°F)
Dewpoint: 7.8°C (46°F) [RH = 41%]
Pressure (altimeter): 29.82 inches Hg (1009.9 mb)
[Sea-level pressure: 1009.9 mb]
Winds: calm
Visibility: 10 or more miles (16+ km)
Ceiling: 18000 feet AGL
Clouds: scattered clouds at 10000 feet AGL
overcast cloud deck at 18000 feet AGL
Weather: no significant weather observed at this time

METAR text: KSMF 192053Z 00000KT 10SM OVC190 21/10 A2985 RMK AO2 SLP108 T02060100 58016
Conditions at: KSMF (SACRAMENTO/METRO, CA, US) observed 2053 UTC 19 March 2019
Temperature: 20.6°C (69°F)
Dewpoint: 10.0°C (50°F) [RH = 51%]
Pressure (altimeter): 29.85 inches Hg (1010.9 mb)
[Sea-level pressure: 1010.8 mb]
Winds: calm
Visibility: 10 or more miles (16+ km)
Ceiling: 19000 feet AGL
Clouds: overcast cloud deck at 19000 feet AGL
Weather: no significant weather observed at this time

METAR text: KSMF 191953Z 00000KT 10SM SCT110 BKN210 19/10 A2988 RMK AO2 SLP116 T01940100
Conditions at: KSMF (SACRAMENTO/METRO, CA, US) observed 1953 UTC 19 March 2019
Temperature: 19.4°C (67°F)
Dewpoint: 10.0°C (50°F) [RH = 55%]
Pressure (altimeter): 29.88 inches Hg (1011.9 mb)
[Sea-level pressure: 1011.6 mb]
Winds: calm
Visibility: 10 or more miles (16+ km)
Ceiling: 21000 feet AGL
Clouds: scattered clouds at 11000 feet AGL
broken clouds at 21000 feet AGL
Weather: no significant weather observed at this time

METAR text: KSMF 191853Z VRB03KT 10SM BKN250 17/11 A2989 RMK AO2 SLP122 T01670106
Conditions at: KSMF (SACRAMENTO/METRO, CA, US) observed 1853 UTC 19 March 2019
Temperature: 16.7°C (62°F)
Dewpoint: 10.6°C (51°F) [RH = 67%]
Pressure (altimeter): 29.89 inches Hg (1012.3 mb)
[Sea-level pressure: 1012.2 mb]
Winds: variable direction winds at 3 MPH (3 knots; 1.5 m/s)
Visibility: 10 or more miles (16+ km)
Ceiling: 25000 feet AGL
Clouds: broken clouds at 25000 feet AGL
Weather: no significant weather observed at this time

METAR text: KSMF 191753Z 20004KT 10SM FEW120 BKN210 15/11 A2990 RMK AO2 SLP124 T01500111 10150 20083 50004
Conditions at: KSMF (SACRAMENTO/METRO, CA, US) observed 1753 UTC 19 March 2019
Temperature: 15.0°C (59°F)
Dewpoint: 11.1°C (52°F) [RH = 77%]
Pressure (altimeter): 29.90 inches Hg (1012.6 mb)
[Sea-level pressure: 1012.4 mb]
Winds: from the SSW (200 degrees) at 5 MPH (4 knots; 2.1 m/s)
Visibility: 10 or more miles (16+ km)
Ceiling: 21000 feet AGL
Clouds: few clouds at 12000 feet AGL
broken clouds at 21000 feet AGL
Weather: no significant weather observed at this time

METAR text: KSMF 191653Z 21003KT 10SM BKN210 13/11 A2991 RMK AO2 SLP127 T01330111
Conditions at: KSMF (SACRAMENTO/METRO, CA, US) observed 1653 UTC 19 March 2019
Temperature: 13.3°C (56°F)
Dewpoint: 11.1°C (52°F) [RH = 87%]
Pressure (altimeter): 29.91 inches Hg (1013.0 mb)
[Sea-level pressure: 1012.7 mb]
Winds: from the SSW (210 degrees) at 3 MPH (3 knots; 1.5 m/s)
Visibility: 10 or more miles (16+ km)
Ceiling: 21000 feet AGL
Clouds: broken clouds at 21000 feet AGL
Weather: no significant weather observed at this time

METAR text: KSMF 191553Z 00000KT 10SM BKN250 12/11 A2990 RMK AO2 SLP123 T01220106
Conditions at: KSMF (SACRAMENTO/METRO, CA, US) observed 1553 UTC 19 March 2019
Temperature: 12.2°C (54°F)
Dewpoint: 10.6°C (51°F) [RH = 90%]
Pressure (altimeter): 29.90 inches Hg (1012.6 mb)
[Sea-level pressure: 1012.3 mb]
Winds: calm
Visibility: 10 or more miles (16+ km)
Ceiling: 25000 feet AGL
Clouds: broken clouds at 25000 feet AGL
Weather: no significant weather observed at this time

METAR text: KSMF 191453Z 00000KT 10SM BKN250 09/08 A2989 RMK AO2 SLP120 T00890083 53001
Conditions at: KSMF (SACRAMENTO/METRO, CA, US) observed 1453 UTC 19 March 2019
Temperature: 8.9°C (48°F)
Dewpoint: 8.3°C (47°F) [RH = 96%]
Pressure (altimeter): 29.89 inches Hg (1012.3 mb)
[Sea-level pressure: 1012.0 mb]
Winds: calm
Visibility: 10 or more miles (16+ km)
Ceiling: 25000 feet AGL
Clouds: broken clouds at 25000 feet AGL
Weather: no significant weather observed at this time

METAR text: KSMF 191419Z COR 00000KT 10SM FEW002 BKN250 09/08 A2988 RMK AO2 T00890083
Conditions at: KSMF (SACRAMENTO/METRO, CA, US) observed 1419 UTC 19 March 2019
Temperature: 8.9°C (48°F)
Dewpoint: 8.3°C (47°F) [RH = 96%]
Pressure (altimeter): 29.88 inches Hg (1011.9 mb)
Winds: calm
Visibility: 10 or more miles (16+ km)
Ceiling: 25000 feet AGL
Clouds: few clouds at 200 feet AGL
broken clouds at 25000 feet AGL
Weather: no significant weather observed at this time

METAR text: KSMF 191353Z 00000KT 9SM BKN250 09/08 A2988 RMK AO2 SLP117 T00890078
Conditions at: KSMF (SACRAMENTO/METRO, CA, US) observed 1353 UTC 19 March 2019
Temperature: 8.9°C (48°F)
Dewpoint: 7.8°C (46°F) [RH = 93%]
Pressure (altimeter): 29.88 inches Hg (1011.9 mb)
[Sea-level pressure: 1011.7 mb]
Winds: calm
Visibility: 9 miles (14 km)
Ceiling: 25000 feet AGL
Clouds: broken clouds at 25000 feet AGL
Weather: no significant weather observed at this time

METAR text: KSMF 191253Z 01003KT 10SM FEW120 BKN180 BKN230 09/08 A2988 RMK AO2 SLP116 T00890078
Conditions at: KSMF (SACRAMENTO/METRO, CA, US) observed 1253 UTC 19 March 2019
Temperature: 8.9°C (48°F)
Dewpoint: 7.8°C (46°F) [RH = 93%]
Pressure (altimeter): 29.88 inches Hg (1011.9 mb)
[Sea-level pressure: 1011.6 mb]
Winds: from the N (10 degrees) at 3 MPH (3 knots; 1.5 m/s)
Visibility: 10 or more miles (16+ km)
Ceiling: 18000 feet AGL
Clouds: few clouds at 12000 feet AGL
broken clouds at 18000 feet AGL
broken clouds at 23000 feet AGL
Weather: no significant weather observed at this time

METAR text: KSMF 191153Z 00000KT 10SM FEW120 BKN180 BKN230 11/09 A2988 RMK AO2 SLP119 T01110094 10133 20100 58004
Conditions at: KSMF (SACRAMENTO/METRO, CA, US) observed 1153 UTC 19 March 2019
Temperature: 11.1°C (52°F)
Dewpoint: 9.4°C (49°F) [RH = 89%]
Pressure (altimeter): 29.88 inches Hg (1011.9 mb)
[Sea-level pressure: 1011.9 mb]
Winds: calm
Visibility: 10 or more miles (16+ km)
Ceiling: 18000 feet AGL
Clouds: few clouds at 12000 feet AGL
broken clouds at 18000 feet AGL
broken clouds at 23000 feet AGL
Weather: no significant weather observed at this time

METAR text: KSMF 191053Z 00000KT 10SM FEW120 BKN180 BKN230 11/09 A2989 RMK AO2 SLP120 T01110094
Conditions at: KSMF (SACRAMENTO/METRO, CA, US) observed 1053 UTC 19 March 2019
Temperature: 11.1°C (52°F)
Dewpoint: 9.4°C (49°F) [RH = 89%]
Pressure (altimeter): 29.89 inches Hg (1012.3 mb)
[Sea-level pressure: 1012.0 mb]
Winds: calm
Visibility: 10 or more miles (16+ km)
Ceiling: 18000 feet AGL
Clouds: few clouds at 12000 feet AGL
broken clouds at 18000 feet AGL
broken clouds at 23000 feet AGL
Weather: no significant weather observed at this time

METAR text: KSMF 190953Z 30004KT 10SM FEW120 FEW180 BKN240 12/09 A2990 RMK AO2 SLP123 T01220094
Conditions at: KSMF (SACRAMENTO/METRO, CA, US) observed 0953 UTC 19 March 2019
Temperature: 12.2°C (54°F)
Dewpoint: 9.4°C (49°F) [RH = 83%]
Pressure (altimeter): 29.90 inches Hg (1012.6 mb)
[Sea-level pressure: 1012.3 mb]
Winds: from the WNW (300 degrees) at 5 MPH (4 knots; 2.1 m/s)
Visibility: 10 or more miles (16+ km)
Ceiling: 24000 feet AGL
Clouds: few clouds at 12000 feet AGL
few clouds at 18000 feet AGL
broken clouds at 24000 feet AGL
Weather: no significant weather observed at this time

METAR text: KSMF 190853Z 29003KT 10SM FEW180 BKN250 11/09 A2990 RMK AO2 SLP123 T01060089 58009
Conditions at: KSMF (SACRAMENTO/METRO, CA, US) observed 0853 UTC 19 March 2019
Temperature: 10.6°C (51°F)
Dewpoint: 8.9°C (48°F) [RH = 89%]
Pressure (altimeter): 29.90 inches Hg (1012.6 mb)
[Sea-level pressure: 1012.3 mb]
Winds: from the WNW (290 degrees) at 3 MPH (3 knots; 1.5 m/s)
Visibility: 10 or more miles (16+ km)
Ceiling: 25000 feet AGL
Clouds: few clouds at 18000 feet AGL
broken clouds at 25000 feet AGL
Weather: no significant weather observed at this time

METAR text: KSMF 190753Z 30005KT 10SM FEW180 SCT250 12/09 A2991 RMK AO2 SLP127 T01170094 402280050
Conditions at: KSMF (SACRAMENTO/METRO, CA, US) observed 0753 UTC 19 March 2019
Temperature: 11.7°C (53°F)
Dewpoint: 9.4°C (49°F) [RH = 86%]
Pressure (altimeter): 29.91 inches Hg (1013.0 mb)
[Sea-level pressure: 1012.7 mb]
Winds: from the WNW (300 degrees) at 6 MPH (5 knots; 2.6 m/s)
Visibility: 10 or more miles (16+ km)
Ceiling: at least 12,000 feet AGL
Clouds: few clouds at 18000 feet AGL
scattered clouds at 25000 feet AGL
Weather: no significant weather observed at this time

METAR text: KSMF 190653Z 00000KT 10SM FEW180 FEW250 12/08 A2992 RMK AO2 SLP131 T01220078
Conditions at: KSMF (SACRAMENTO/METRO, CA, US) observed 0653 UTC 19 March 2019
Temperature: 12.2°C (54°F)
Dewpoint: 7.8°C (46°F) [RH = 74%]
Pressure (altimeter): 29.92 inches Hg (1013.3 mb)
[Sea-level pressure: 1013.1 mb]
Winds: calm
Visibility: 10 or more miles (16+ km)
Ceiling: at least 12,000 feet AGL
Clouds: few clouds at 18000 feet AGL
few clouds at 25000 feet AGL
Weather: no significant weather observed at this time

METAR text: KSMF 190553Z 06005KT 10SM FEW250 13/08 A2992 RMK AO2 SLP132 T01330083 10222 20128 51005
Conditions at: KSMF (SACRAMENTO/METRO, CA, US) observed 0553 UTC 19 March 2019
Temperature: 13.3°C (56°F)
Dewpoint: 8.3°C (47°F) [RH = 72%]
Pressure (altimeter): 29.92 inches Hg (1013.3 mb)
[Sea-level pressure: 1013.2 mb]
Winds: from the ENE (60 degrees) at 6 MPH (5 knots; 2.6 m/s)
Visibility: 10 or more miles (16+ km)
Ceiling: at least 12,000 feet AGL
Clouds: few clouds at 25000 feet AGL
Weather: no significant weather observed at this time

METAR text: KSMF 190453Z 29003KT 10SM FEW250 14/08 A2992 RMK AO2 SLP132 T01390078
Conditions at: KSMF (SACRAMENTO/METRO, CA, US) observed 0453 UTC 19 March 2019
Temperature: 13.9°C (57°F)
Dewpoint: 7.8°C (46°F) [RH = 67%]
Pressure (altimeter): 29.92 inches Hg (1013.3 mb)
[Sea-level pressure: 1013.2 mb]
Winds: from the WNW (290 degrees) at 3 MPH (3 knots; 1.5 m/s)
Visibility: 10 or more miles (16+ km)
Ceiling: at least 12,000 feet AGL
Clouds: few clouds at 25000 feet AGL
Weather: no significant weather observed at this time

METAR text: KSMF 190353Z 00000KT 10SM FEW250 16/09 A2991 RMK AO2 SLP129 T01610089
Conditions at: KSMF (SACRAMENTO/METRO, CA, US) observed 0353 UTC 19 March 2019
Temperature: 16.1°C (61°F)
Dewpoint: 8.9°C (48°F) [RH = 62%]
Pressure (altimeter): 29.91 inches Hg (1013.0 mb)
[Sea-level pressure: 1012.9 mb]
Winds: calm
Visibility: 10 or more miles (16+ km)
Ceiling: at least 12,000 feet AGL
Clouds: few clouds at 25000 feet AGL
Weather: no significant weather observed at this time

Forecast for: KSMF (SACRAMENTO/METRO, CA, US)
Text: KSMF 201523Z 2015/2112 16013KT P6SM SHRA BKN050 OVC060
Forecast period: 1500 to 2100 UTC 20 March 2019
Forecast type: FROM: standard forecast or significant change
Winds: from the SSE (160 degrees) at 15 MPH (13 knots; 6.7 m/s)
Visibility: 6 or more miles 10+ km)
Ceiling: 5000 feet AGL
Clouds: broken clouds at 5000 feet AGL
overcast cloud deck at 6000 feet AGL
Weather: SHRA  (rain showers)
Text: TEMPO 2015/2019 3SM -RA BKN025
Forecast period: 1500 to 1900 UTC 20 March 2019
Forecast type: TEMPORARY: The following changes expected for less than half the time period
Visibility: 3 miles (5 km)
Ceiling: 2500 feet AGL
Clouds: broken clouds at 2500 feet AGL
Weather: -RA  (light rain)
Text: FM202100 19008KT P6SM SHRA VCTS BKN035CB
Forecast period: 2100 UTC 20 March 2019 to 0200 UTC 21 March 2019
Forecast type: FROM: standard forecast or significant change
Winds: from the S (190 degrees) at 9 MPH (8 knots; 4.1 m/s)
Visibility: 6 or more miles 10+ km)
Ceiling: 3500 feet AGL
Clouds: broken clouds at 3500 feet AGL
Weather: SHRA VCTS  (rain showers, thunderstorm in vicinity)
Text: FM210200 20004KT P6SM BKN100
Forecast period: 0200 to 1200 UTC 21 March 2019
Forecast type: FROM: standard forecast or significant change
Winds: from the SSW (200 degrees) at 5 MPH (4 knots; 2.1 m/s)
Visibility: 6 or more miles 10+ km)
Ceiling: 10000 feet AGL
Clouds: broken clouds at 10000 feet AGL
Weather: no significant weather forecast for this period